sensor_id;sensor_type;location;lat;lon;timestamp;temperature;humidity
16412;DHT22;8315;52.104;6.304;2023-06-24T00:01:47;18.10;98.40
16412;DHT22;8315;52.104;6.304;2023-06-24T00:04:14;18.10;98.40
16412;DHT22;8315;52.104;6.304;2023-06-24T00:06:44;18.10;98.40
16412;DHT22;8315;52.104;6.304;2023-06-24T00:09:11;18.00;98.40
16412;DHT22;8315;52.104;6.304;2023-06-24T00:11:38;18.00;98.40
16412;DHT22;8315;52.104;6.304;2023-06-24T00:14:05;18.00;98.40
16412;DHT22;8315;52.104;6.304;2023-06-24T00:16:33;17.90;98.40
16412;DHT22;8315;52.104;6.304;2023-06-24T00:19:02;17.90;98.40
16412;DHT22;8315;52.104;6.304;2023-06-24T00:21:28;18.00;98.40
16412;DHT22;8315;52.104;6.304;2023-06-24T00:23:57;17.90;98.40
16412;DHT22;8315;52.104;6.304;2023-06-24T00:26:24;17.90;98.40
16412;DHT22;8315;52.104;6.304;2023-06-24T00:28:51;17.80;98.40
16412;DHT22;8315;52.104;6.304;2023-06-24T00:31:18;17.80;98.40
16412;DHT22;8315;52.104;6.304;2023-06-24T00:33:48;17.90;98.40
16412;DHT22;8315;52.104;6.304;2023-06-24T00:36:17;17.80;98.40
16412;DHT22;8315;52.104;6.304;2023-06-24T00:38:44;17.80;98.40
16412;DHT22;8315;52.104;6.304;2023-06-24T00:41:11;17.80;98.40
16412;DHT22;8315;52.104;6.304;2023-06-24T00:43:38;17.70;98.40
16412;DHT22;8315;52.104;6.304;2023-06-24T00:46:05;17.70;98.40
16412;DHT22;8315;52.104;6.304;2023-06-24T00:48:32;17.70;98.40
16412;DHT22;8315;52.104;6.304;2023-06-24T00:51:00;17.80;98.40
16412;DHT22;8315;52.104;6.304;2023-06-24T00:53:27;17.70;98.40
16412;DHT22;8315;52.104;6.304;2023-06-24T00:55:54;17.80;98.40
16412;DHT22;8315;52.104;6.304;2023-06-24T00:58:22;17.60;98.40
16412;DHT22;8315;52.104;6.304;2023-06-24T01:00:49;17.50;98.40
16412;DHT22;8315;52.104;6.304;2023-06-24T01:03:23;17.60;98.40
16412;DHT22;8315;52.104;6.304;2023-06-24T01:05:50;17.60;98.40
16412;DHT22;8315;52.104;6.304;2023-06-24T01:08:19;17.70;98.40
16412;DHT22;8315;52.104;6.304;2023-06-24T01:10:48;17.60;98.40
16412;DHT22;8315;52.104;6.304;2023-06-24T01:13:17;17.70;98.40
16412;DHT22;8315;52.104;6.304;2023-06-24T01:15:44;17.60;98.40
16412;DHT22;8315;52.104;6.304;2023-06-24T01:18:13;17.70;98.40
16412;DHT22;8315;52.104;6.304;2023-06-24T01:20:47;17.70;98.40
16412;DHT22;8315;52.104;6.304;2023-06-24T01:23:20;17.60;98.40
16412;DHT22;8315;52.104;6.304;2023-06-24T01:26:05;17.60;98.40
16412;DHT22;8315;52.104;6.304;2023-06-24T01:29:07;17.60;98.40
16412;DHT22;8315;52.104;6.304;2023-06-24T01:31:43;17.60;98.40
16412;DHT22;8315;52.104;6.304;2023-06-24T01:34:15;17.60;98.40
16412;DHT22;8315;52.104;6.304;2023-06-24T01:36:50;17.60;98.40
16412;DHT22;8315;52.104;6.304;2023-06-24T01:39:21;17.60;98.40
16412;DHT22;8315;52.104;6.304;2023-06-24T01:41:51;17.60;98.40
16412;DHT22;8315;52.104;6.304;2023-06-24T01:44:26;17.50;98.40
16412;DHT22;8315;52.104;6.304;2023-06-24T01:46:55;17.40;98.40
16412;DHT22;8315;52.104;6.304;2023-06-24T01:49:24;17.50;98.40
16412;DHT22;8315;52.104;6.304;2023-06-24T01:51:54;17.50;98.40
16412;DHT22;8315;52.104;6.304;2023-06-24T01:54:23;17.40;98.40
16412;DHT22;8315;52.104;6.304;2023-06-24T01:56:50;17.40;98.40
16412;DHT22;8315;52.104;6.304;2023-06-24T01:59:19;17.20;98.40
16412;DHT22;8315;52.104;6.304;2023-06-24T02:01:47;17.20;98.40
16412;DHT22;8315;52.104;6.304;2023-06-24T02:04:15;17.30;98.40
16412;DHT22;8315;52.104;6.304;2023-06-24T02:06:42;17.30;98.40
16412;DHT22;8315;52.104;6.304;2023-06-24T02:09:09;17.30;98.40
16412;DHT22;8315;52.104;6.304;2023-06-24T02:11:36;17.30;98.40
16412;DHT22;8315;52.104;6.304;2023-06-24T02:14:04;17.30;98.40
16412;DHT22;8315;52.104;6.304;2023-06-24T02:16:32;17.20;98.40
16412;DHT22;8315;52.104;6.304;2023-06-24T02:19:00;17.30;98.40
16412;DHT22;8315;52.104;6.304;2023-06-24T02:21:29;17.30;98.40
16412;DHT22;8315;52.104;6.304;2023-06-24T02:23:56;17.30;98.40
16412;DHT22;8315;52.104;6.304;2023-06-24T02:26:23;17.30;98.40
16412;DHT22;8315;52.104;6.304;2023-06-24T02:28:51;17.20;98.40
16412;DHT22;8315;52.104;6.304;2023-06-24T02:31:18;17.20;98.40
16412;DHT22;8315;52.104;6.304;2023-06-24T02:33:45;17.30;98.40
16412;DHT22;8315;52.104;6.304;2023-06-24T02:36:12;17.20;98.40
16412;DHT22;8315;52.104;6.304;2023-06-24T02:38:40;17.20;98.40
16412;DHT22;8315;52.104;6.304;2023-06-24T02:41:07;17.10;98.40
16412;DHT22;8315;52.104;6.304;2023-06-24T02:43:34;17.10;98.40
16412;DHT22;8315;52.104;6.304;2023-06-24T02:46:02;17.10;98.40
16412;DHT22;8315;52.104;6.304;2023-06-24T02:48:30;17.10;98.40
16412;DHT22;8315;52.104;6.304;2023-06-24T02:50:59;17.10;98.40
16412;DHT22;8315;52.104;6.304;2023-06-24T02:53:27;17.10;98.40
16412;DHT22;8315;52.104;6.304;2023-06-24T02:55:56;17.10;98.40
16412;DHT22;8315;52.104;6.304;2023-06-24T02:58:23;17.00;98.40
16412;DHT22;8315;52.104;6.304;2023-06-24T03:01:06;17.10;98.40
16412;DHT22;8315;52.104;6.304;2023-06-24T03:03:46;17.10;98.40
16412;DHT22;8315;52.104;6.304;2023-06-24T03:06:15;16.90;98.40
16412;DHT22;8315;52.104;6.304;2023-06-24T03:08:43;17.00;98.40
16412;DHT22;8315;52.104;6.304;2023-06-24T03:11:13;17.00;98.40
16412;DHT22;8315;52.104;6.304;2023-06-24T03:13:40;17.20;98.40
16412;DHT22;8315;52.104;6.304;2023-06-24T03:16:33;17.20;98.40
16412;DHT22;8315;52.104;6.304;2023-06-24T03:19:06;17.20;98.40
16412;DHT22;8315;52.104;6.304;2023-06-24T03:21:33;17.20;98.40
16412;DHT22;8315;52.104;6.304;2023-06-24T03:24:12;17.20;98.40
16412;DHT22;8315;52.104;6.304;2023-06-24T03:26:42;17.20;98.40
16412;DHT22;8315;52.104;6.304;2023-06-24T03:29:11;17.00;98.40
16412;DHT22;8315;52.104;6.304;2023-06-24T03:31:46;17.00;98.40
16412;DHT22;8315;52.104;6.304;2023-06-24T03:34:18;17.10;98.40
16412;DHT22;8315;52.104;6.304;2023-06-24T03:36:45;17.20;98.40
16412;DHT22;8315;52.104;6.304;2023-06-24T03:39:14;17.10;98.40
16412;DHT22;8315;52.104;6.304;2023-06-24T03:41:43;17.00;98.40
16412;DHT22;8315;52.104;6.304;2023-06-24T03:44:11;17.10;98.40
16412;DHT22;8315;52.104;6.304;2023-06-24T03:46:38;17.00;98.40
16412;DHT22;8315;52.104;6.304;2023-06-24T03:49:05;17.00;98.40
16412;DHT22;8315;52.104;6.304;2023-06-24T03:51:32;16.90;98.40
16412;DHT22;8315;52.104;6.304;2023-06-24T03:53:59;16.80;98.40
16412;DHT22;8315;52.104;6.304;2023-06-24T03:56:26;16.80;98.40
16412;DHT22;8315;52.104;6.304;2023-06-24T03:58:55;16.90;98.40
16412;DHT22;8315;52.104;6.304;2023-06-24T04:01:25;16.90;98.40
16412;DHT22;8315;52.104;6.304;2023-06-24T04:03:51;17.00;98.40
16412;DHT22;8315;52.104;6.304;2023-06-24T04:06:18;17.00;98.40
16412;DHT22;8315;52.104;6.304;2023-06-24T04:08:45;16.90;98.40
16412;DHT22;8315;52.104;6.304;2023-06-24T04:11:14;17.00;98.40
16412;DHT22;8315;52.104;6.304;2023-06-24T04:13:40;17.10;98.40
16412;DHT22;8315;52.104;6.304;2023-06-24T04:16:09;17.20;98.40
16412;DHT22;8315;52.104;6.304;2023-06-24T04:18:35;17.10;98.40
16412;DHT22;8315;52.104;6.304;2023-06-24T04:21:05;17.10;98.40
16412;DHT22;8315;52.104;6.304;2023-06-24T04:23:33;17.30;98.40
16412;DHT22;8315;52.104;6.304;2023-06-24T04:26:00;17.40;98.40
16412;DHT22;8315;52.104;6.304;2023-06-24T04:28:27;17.30;98.40
16412;DHT22;8315;52.104;6.304;2023-06-24T04:30:54;17.40;98.40
16412;DHT22;8315;52.104;6.304;2023-06-24T04:33:22;17.50;98.40
16412;DHT22;8315;52.104;6.304;2023-06-24T04:35:50;17.50;98.40
16412;DHT22;8315;52.104;6.304;2023-06-24T04:38:18;17.50;98.40
16412;DHT22;8315;52.104;6.304;2023-06-24T04:40:47;17.60;98.40
16412;DHT22;8315;52.104;6.304;2023-06-24T04:43:13;17.60;98.40
16412;DHT22;8315;52.104;6.304;2023-06-24T04:45:40;17.70;98.40
16412;DHT22;8315;52.104;6.304;2023-06-24T04:48:07;17.80;98.40
16412;DHT22;8315;52.104;6.304;2023-06-24T04:50:35;17.80;98.40
16412;DHT22;8315;52.104;6.304;2023-06-24T04:53:02;17.80;98.40
16412;DHT22;8315;52.104;6.304;2023-06-24T04:55:29;17.80;98.40
16412;DHT22;8315;52.104;6.304;2023-06-24T04:57:56;17.90;98.40
16412;DHT22;8315;52.104;6.304;2023-06-24T05:00:23;18.00;98.40
16412;DHT22;8315;52.104;6.304;2023-06-24T05:02:50;18.00;98.40
16412;DHT22;8315;52.104;6.304;2023-06-24T05:05:17;17.90;98.40
16412;DHT22;8315;52.104;6.304;2023-06-24T05:07:47;18.00;98.40
16412;DHT22;8315;52.104;6.304;2023-06-24T05:10:14;17.80;98.40
16412;DHT22;8315;52.104;6.304;2023-06-24T05:12:41;18.00;98.40
16412;DHT22;8315;52.104;6.304;2023-06-24T05:15:08;18.10;98.40
16412;DHT22;8315;52.104;6.304;2023-06-24T05:17:35;18.00;98.40
16412;DHT22;8315;52.104;6.304;2023-06-24T05:20:02;18.00;98.40
16412;DHT22;8315;52.104;6.304;2023-06-24T05:22:29;18.10;98.40
16412;DHT22;8315;52.104;6.304;2023-06-24T05:24:57;18.30;98.40
16412;DHT22;8315;52.104;6.304;2023-06-24T05:27:24;18.40;98.40
16412;DHT22;8315;52.104;6.304;2023-06-24T05:29:50;18.60;98.40
16412;DHT22;8315;52.104;6.304;2023-06-24T05:32:17;18.80;98.40
16412;DHT22;8315;52.104;6.304;2023-06-24T05:34:45;18.90;98.40
16412;DHT22;8315;52.104;6.304;2023-06-24T05:37:12;18.90;98.40
16412;DHT22;8315;52.104;6.304;2023-06-24T05:39:39;19.10;98.40
16412;DHT22;8315;52.104;6.304;2023-06-24T05:42:07;19.10;98.40
16412;DHT22;8315;52.104;6.304;2023-06-24T05:44:34;19.20;98.40
16412;DHT22;8315;52.104;6.304;2023-06-24T05:47:01;19.20;98.40
16412;DHT22;8315;52.104;6.304;2023-06-24T05:49:27;19.20;98.40
16412;DHT22;8315;52.104;6.304;2023-06-24T05:51:54;19.30;98.40
16412;DHT22;8315;52.104;6.304;2023-06-24T05:54:22;19.40;98.40
16412;DHT22;8315;52.104;6.304;2023-06-24T05:56:49;19.50;98.40
16412;DHT22;8315;52.104;6.304;2023-06-24T05:59:17;19.60;98.40
16412;DHT22;8315;52.104;6.304;2023-06-24T06:01:44;19.60;98.40
16412;DHT22;8315;52.104;6.304;2023-06-24T06:04:11;19.80;98.40
16412;DHT22;8315;52.104;6.304;2023-06-24T06:06:38;19.80;98.40
16412;DHT22;8315;52.104;6.304;2023-06-24T06:09:04;19.90;98.40
16412;DHT22;8315;52.104;6.304;2023-06-24T06:11:31;20.00;98.40
16412;DHT22;8315;52.104;6.304;2023-06-24T06:13:58;20.00;98.40
16412;DHT22;8315;52.104;6.304;2023-06-24T06:16:26;20.20;98.40
16412;DHT22;8315;52.104;6.304;2023-06-24T06:18:53;20.20;98.40
16412;DHT22;8315;52.104;6.304;2023-06-24T06:21:21;20.30;98.40
16412;DHT22;8315;52.104;6.304;2023-06-24T06:23:48;20.40;98.40
16412;DHT22;8315;52.104;6.304;2023-06-24T06:26:15;20.40;98.40
16412;DHT22;8315;52.104;6.304;2023-06-24T06:28:42;20.50;98.40
16412;DHT22;8315;52.104;6.304;2023-06-24T06:31:08;20.60;98.40
16412;DHT22;8315;52.104;6.304;2023-06-24T06:33:36;20.60;98.40
16412;DHT22;8315;52.104;6.304;2023-06-24T06:36:03;20.60;98.40
16412;DHT22;8315;52.104;6.304;2023-06-24T06:38:31;20.70;98.40
16412;DHT22;8315;52.104;6.304;2023-06-24T06:40:59;20.70;98.40
16412;DHT22;8315;52.104;6.304;2023-06-24T06:43:26;20.90;98.40
16412;DHT22;8315;52.104;6.304;2023-06-24T06:45:53;21.00;98.40
16412;DHT22;8315;52.104;6.304;2023-06-24T06:48:20;20.90;98.40
16412;DHT22;8315;52.104;6.304;2023-06-24T06:50:48;21.00;98.40
16412;DHT22;8315;52.104;6.304;2023-06-24T06:53:15;21.10;98.40
16412;DHT22;8315;52.104;6.304;2023-06-24T06:55:42;21.20;98.40
16412;DHT22;8315;52.104;6.304;2023-06-24T06:58:09;21.30;98.40
16412;DHT22;8315;52.104;6.304;2023-06-24T07:00:36;21.30;98.40
16412;DHT22;8315;52.104;6.304;2023-06-24T07:03:03;21.30;98.40
16412;DHT22;8315;52.104;6.304;2023-06-24T07:05:29;21.40;98.40
16412;DHT22;8315;52.104;6.304;2023-06-24T07:07:58;21.50;98.40
16412;DHT22;8315;52.104;6.304;2023-06-24T07:10:24;21.60;98.40
16412;DHT22;8315;52.104;6.304;2023-06-24T07:12:51;21.60;98.40
16412;DHT22;8315;52.104;6.304;2023-06-24T07:15:24;21.70;98.40
16412;DHT22;8315;52.104;6.304;2023-06-24T07:17:51;21.70;98.40
16412;DHT22;8315;52.104;6.304;2023-06-24T07:20:18;21.60;98.40
16412;DHT22;8315;52.104;6.304;2023-06-24T07:22:45;21.70;98.40
16412;DHT22;8315;52.104;6.304;2023-06-24T07:25:13;21.80;98.40
16412;DHT22;8315;52.104;6.304;2023-06-24T07:27:40;21.80;98.40
16412;DHT22;8315;52.104;6.304;2023-06-24T07:30:07;22.00;98.40
16412;DHT22;8315;52.104;6.304;2023-06-24T07:32:35;22.00;98.40
16412;DHT22;8315;52.104;6.304;2023-06-24T07:35:02;22.00;98.40
16412;DHT22;8315;52.104;6.304;2023-06-24T07:37:29;22.10;98.40
16412;DHT22;8315;52.104;6.304;2023-06-24T07:39:55;22.20;98.40
16412;DHT22;8315;52.104;6.304;2023-06-24T07:42:23;22.30;98.40
16412;DHT22;8315;52.104;6.304;2023-06-24T07:44:50;22.50;98.40
16412;DHT22;8315;52.104;6.304;2023-06-24T07:47:17;22.50;98.40
16412;DHT22;8315;52.104;6.304;2023-06-24T07:49:44;22.60;98.40
16412;DHT22;8315;52.104;6.304;2023-06-24T07:52:11;22.70;98.40
16412;DHT22;8315;52.104;6.304;2023-06-24T07:54:38;22.80;98.40
16412;DHT22;8315;52.104;6.304;2023-06-24T07:57:05;22.90;98.40
16412;DHT22;8315;52.104;6.304;2023-06-24T07:59:33;22.80;98.30
16412;DHT22;8315;52.104;6.304;2023-06-24T08:02:00;22.80;98.40
16412;DHT22;8315;52.104;6.304;2023-06-24T08:04:27;22.90;98.40
16412;DHT22;8315;52.104;6.304;2023-06-24T08:06:53;23.00;98.00
16412;DHT22;8315;52.104;6.304;2023-06-24T08:09:20;23.00;97.80
16412;DHT22;8315;52.104;6.304;2023-06-24T08:11:47;23.10;97.70
16412;DHT22;8315;52.104;6.304;2023-06-24T08:14:14;23.00;98.30
16412;DHT22;8315;52.104;6.304;2023-06-24T08:16:42;23.00;96.40
16412;DHT22;8315;52.104;6.304;2023-06-24T08:19:09;23.00;95.50
16412;DHT22;8315;52.104;6.304;2023-06-24T08:21:36;23.20;94.70
16412;DHT22;8315;52.104;6.304;2023-06-24T08:24:03;23.20;94.20
16412;DHT22;8315;52.104;6.304;2023-06-24T08:26:30;23.30;95.40
16412;DHT22;8315;52.104;6.304;2023-06-24T08:28:57;23.40;96.90
16412;DHT22;8315;52.104;6.304;2023-06-24T08:31:24;23.50;97.80
16412;DHT22;8315;52.104;6.304;2023-06-24T08:33:53;23.50;97.90
16412;DHT22;8315;52.104;6.304;2023-06-24T08:36:21;23.40;96.90
16412;DHT22;8315;52.104;6.304;2023-06-24T08:38:48;23.20;96.50
16412;DHT22;8315;52.104;6.304;2023-06-24T08:41:15;23.20;97.30
16412;DHT22;8315;52.104;6.304;2023-06-24T08:43:41;23.30;97.40
16412;DHT22;8315;52.104;6.304;2023-06-24T08:46:08;23.60;98.40
16412;DHT22;8315;52.104;6.304;2023-06-24T08:48:35;23.60;97.50
16412;DHT22;8315;52.104;6.304;2023-06-24T08:51:06;23.70;98.10
16412;DHT22;8315;52.104;6.304;2023-06-24T08:53:34;23.80;96.90
16412;DHT22;8315;52.104;6.304;2023-06-24T08:56:03;23.80;94.50
16412;DHT22;8315;52.104;6.304;2023-06-24T08:58:30;23.80;95.30
16412;DHT22;8315;52.104;6.304;2023-06-24T09:00:56;23.80;94.80
16412;DHT22;8315;52.104;6.304;2023-06-24T09:03:23;23.80;94.50
16412;DHT22;8315;52.104;6.304;2023-06-24T09:05:51;23.90;94.90
16412;DHT22;8315;52.104;6.304;2023-06-24T09:08:19;24.00;95.60
16412;DHT22;8315;52.104;6.304;2023-06-24T09:10:47;23.90;94.50
16412;DHT22;8315;52.104;6.304;2023-06-24T09:13:19;23.90;95.90
16412;DHT22;8315;52.104;6.304;2023-06-24T09:15:45;24.00;95.40
16412;DHT22;8315;52.104;6.304;2023-06-24T09:18:12;23.90;94.20
16412;DHT22;8315;52.104;6.304;2023-06-24T09:20:42;23.90;95.00
16412;DHT22;8315;52.104;6.304;2023-06-24T09:23:11;23.90;95.70
16412;DHT22;8315;52.104;6.304;2023-06-24T09:25:39;24.00;95.30
16412;DHT22;8315;52.104;6.304;2023-06-24T09:28:06;24.20;94.30
16412;DHT22;8315;52.104;6.304;2023-06-24T09:30:32;24.10;92.40
16412;DHT22;8315;52.104;6.304;2023-06-24T09:32:59;24.20;91.60
16412;DHT22;8315;52.104;6.304;2023-06-24T09:35:26;24.20;92.30
16412;DHT22;8315;52.104;6.304;2023-06-24T09:37:53;24.30;91.00
16412;DHT22;8315;52.104;6.304;2023-06-24T09:40:21;24.30;89.60
16412;DHT22;8315;52.104;6.304;2023-06-24T09:42:51;24.30;90.70
16412;DHT22;8315;52.104;6.304;2023-06-24T09:45:20;24.30;89.40
16412;DHT22;8315;52.104;6.304;2023-06-24T09:47:48;24.40;91.40
16412;DHT22;8315;52.104;6.304;2023-06-24T09:50:15;24.60;90.70
16412;DHT22;8315;52.104;6.304;2023-06-24T09:52:42;24.80;92.10
16412;DHT22;8315;52.104;6.304;2023-06-24T09:55:10;25.00;83.30
16412;DHT22;8315;52.104;6.304;2023-06-24T09:57:38;24.90;86.40
16412;DHT22;8315;52.104;6.304;2023-06-24T10:00:08;24.80;86.30
16412;DHT22;8315;52.104;6.304;2023-06-24T10:02:36;24.60;85.30
16412;DHT22;8315;52.104;6.304;2023-06-24T10:05:04;24.60;86.30
16412;DHT22;8315;52.104;6.304;2023-06-24T10:07:30;24.70;83.10
16412;DHT22;8315;52.104;6.304;2023-06-24T10:09:58;24.60;83.00
16412;DHT22;8315;52.104;6.304;2023-06-24T10:12:25;24.60;83.40
16412;DHT22;8315;52.104;6.304;2023-06-24T10:14:54;24.70;82.70
16412;DHT22;8315;52.104;6.304;2023-06-24T10:17:22;24.70;85.30
16412;DHT22;8315;52.104;6.304;2023-06-24T10:19:51;24.80;84.80
16412;DHT22;8315;52.104;6.304;2023-06-24T10:22:18;24.70;84.70
16412;DHT22;8315;52.104;6.304;2023-06-24T10:24:48;24.70;86.20
16412;DHT22;8315;52.104;6.304;2023-06-24T10:27:15;24.70;85.50
16412;DHT22;8315;52.104;6.304;2023-06-24T10:29:44;24.80;83.80
16412;DHT22;8315;52.104;6.304;2023-06-24T10:32:11;25.00;84.80
16412;DHT22;8315;52.104;6.304;2023-06-24T10:34:41;25.20;81.90
16412;DHT22;8315;52.104;6.304;2023-06-24T10:37:09;25.30;83.30
16412;DHT22;8315;52.104;6.304;2023-06-24T10:39:45;25.40;87.20
16412;DHT22;8315;52.104;6.304;2023-06-24T10:42:26;25.50;85.00
16412;DHT22;8315;52.104;6.304;2023-06-24T10:44:54;25.60;83.60
16412;DHT22;8315;52.104;6.304;2023-06-24T10:47:22;25.60;83.80
16412;DHT22;8315;52.104;6.304;2023-06-24T10:49:50;25.70;82.10
16412;DHT22;8315;52.104;6.304;2023-06-24T10:52:18;25.80;81.30
16412;DHT22;8315;52.104;6.304;2023-06-24T10:54:45;25.80;80.90
16412;DHT22;8315;52.104;6.304;2023-06-24T10:57:12;25.70;80.90
16412;DHT22;8315;52.104;6.304;2023-06-24T10:59:39;25.70;81.20
16412;DHT22;8315;52.104;6.304;2023-06-24T11:02:07;25.90;83.60
16412;DHT22;8315;52.104;6.304;2023-06-24T11:04:41;26.00;81.80
16412;DHT22;8315;52.104;6.304;2023-06-24T11:07:10;25.90;82.80
16412;DHT22;8315;52.104;6.304;2023-06-24T11:09:37;25.80;83.00
16412;DHT22;8315;52.104;6.304;2023-06-24T11:12:04;26.00;85.10
16412;DHT22;8315;52.104;6.304;2023-06-24T11:14:32;26.10;81.20
16412;DHT22;8315;52.104;6.304;2023-06-24T11:17:00;26.00;84.40
16412;DHT22;8315;52.104;6.304;2023-06-24T11:19:27;25.90;80.90
16412;DHT22;8315;52.104;6.304;2023-06-24T11:21:58;26.10;82.20
16412;DHT22;8315;52.104;6.304;2023-06-24T11:24:27;26.10;82.90
16412;DHT22;8315;52.104;6.304;2023-06-24T11:26:54;26.10;82.90
16412;DHT22;8315;52.104;6.304;2023-06-24T11:29:21;26.30;85.00
16412;DHT22;8315;52.104;6.304;2023-06-24T11:31:48;26.30;83.30
16412;DHT22;8315;52.104;6.304;2023-06-24T11:34:15;26.30;81.20
16412;DHT22;8315;52.104;6.304;2023-06-24T11:36:42;26.30;81.70
16412;DHT22;8315;52.104;6.304;2023-06-24T11:39:19;26.20;81.90
16412;DHT22;8315;52.104;6.304;2023-06-24T11:41:48;26.30;82.30
16412;DHT22;8315;52.104;6.304;2023-06-24T11:44:17;26.30;80.70
16412;DHT22;8315;52.104;6.304;2023-06-24T11:46:44;26.30;82.50
16412;DHT22;8315;52.104;6.304;2023-06-24T11:49:11;26.60;83.40
16412;DHT22;8315;52.104;6.304;2023-06-24T11:51:45;26.70;84.50
16412;DHT22;8315;52.104;6.304;2023-06-24T11:54:14;26.90;83.30
16412;DHT22;8315;52.104;6.304;2023-06-24T11:56:41;26.80;81.50
16412;DHT22;8315;52.104;6.304;2023-06-24T11:59:16;26.80;83.10
16412;DHT22;8315;52.104;6.304;2023-06-24T12:01:44;26.70;82.90
16412;DHT22;8315;52.104;6.304;2023-06-24T12:04:11;26.90;84.50
16412;DHT22;8315;52.104;6.304;2023-06-24T12:06:38;26.80;82.00
16412;DHT22;8315;52.104;6.304;2023-06-24T12:09:05;26.60;81.50
16412;DHT22;8315;52.104;6.304;2023-06-24T12:11:32;26.80;82.50
16412;DHT22;8315;52.104;6.304;2023-06-24T12:13:59;27.10;82.90
16412;DHT22;8315;52.104;6.304;2023-06-24T12:16:27;27.20;83.00
16412;DHT22;8315;52.104;6.304;2023-06-24T12:18:55;27.40;80.40
16412;DHT22;8315;52.104;6.304;2023-06-24T12:21:22;27.40;79.60
16412;DHT22;8315;52.104;6.304;2023-06-24T12:23:49;27.30;80.00
16412;DHT22;8315;52.104;6.304;2023-06-24T12:26:15;27.00;81.20
16412;DHT22;8315;52.104;6.304;2023-06-24T12:28:42;27.00;81.80
16412;DHT22;8315;52.104;6.304;2023-06-24T12:31:09;27.10;81.20
16412;DHT22;8315;52.104;6.304;2023-06-24T12:33:37;27.00;82.70
16412;DHT22;8315;52.104;6.304;2023-06-24T12:36:04;26.80;82.10
16412;DHT22;8315;52.104;6.304;2023-06-24T12:38:31;26.90;82.60
16412;DHT22;8315;52.104;6.304;2023-06-24T12:40:58;27.00;81.10
16412;DHT22;8315;52.104;6.304;2023-06-24T12:43:25;27.20;80.70
16412;DHT22;8315;52.104;6.304;2023-06-24T12:45:51;27.30;81.80
16412;DHT22;8315;52.104;6.304;2023-06-24T12:48:18;27.40;82.00
16412;DHT22;8315;52.104;6.304;2023-06-24T12:50:46;27.50;82.30
16412;DHT22;8315;52.104;6.304;2023-06-24T12:53:18;27.60;78.80
16412;DHT22;8315;52.104;6.304;2023-06-24T12:55:45;27.50;80.60
16412;DHT22;8315;52.104;6.304;2023-06-24T12:58:12;27.50;82.80
16412;DHT22;8315;52.104;6.304;2023-06-24T13:00:39;27.70;82.50
16412;DHT22;8315;52.104;6.304;2023-06-24T13:03:06;27.60;84.90
16412;DHT22;8315;52.104;6.304;2023-06-24T13:05:33;27.60;84.40
16412;DHT22;8315;52.104;6.304;2023-06-24T13:08:01;27.40;81.50
16412;DHT22;8315;52.104;6.304;2023-06-24T13:10:28;27.50;82.00
16412;DHT22;8315;52.104;6.304;2023-06-24T13:12:55;27.50;82.30
16412;DHT22;8315;52.104;6.304;2023-06-24T13:15:22;27.20;80.90
16412;DHT22;8315;52.104;6.304;2023-06-24T13:17:49;27.30;81.40
16412;DHT22;8315;52.104;6.304;2023-06-24T13:20:16;27.40;82.40
16412;DHT22;8315;52.104;6.304;2023-06-24T13:22:42;27.10;80.30
16412;DHT22;8315;52.104;6.304;2023-06-24T13:25:10;27.30;81.50
16412;DHT22;8315;52.104;6.304;2023-06-24T13:27:37;27.50;81.20
16412;DHT22;8315;52.104;6.304;2023-06-24T13:30:04;27.80;82.60
16412;DHT22;8315;52.104;6.304;2023-06-24T13:32:32;28.00;81.30
16412;DHT22;8315;52.104;6.304;2023-06-24T13:34:59;28.10;81.40
16412;DHT22;8315;52.104;6.304;2023-06-24T13:37:26;28.10;80.70
16412;DHT22;8315;52.104;6.304;2023-06-24T13:39:52;28.20;84.30
16412;DHT22;8315;52.104;6.304;2023-06-24T13:42:20;28.20;81.20
16412;DHT22;8315;52.104;6.304;2023-06-24T13:44:48;28.10;79.80
16412;DHT22;8315;52.104;6.304;2023-06-24T13:47:14;28.10;79.70
16412;DHT22;8315;52.104;6.304;2023-06-24T13:49:41;28.20;80.60
16412;DHT22;8315;52.104;6.304;2023-06-24T13:52:08;28.20;81.00
16412;DHT22;8315;52.104;6.304;2023-06-24T13:54:35;28.30;80.40
16412;DHT22;8315;52.104;6.304;2023-06-24T13:57:01;28.30;81.10
16412;DHT22;8315;52.104;6.304;2023-06-24T13:59:30;28.40;80.80
16412;DHT22;8315;52.104;6.304;2023-06-24T14:01:57;28.50;81.10
16412;DHT22;8315;52.104;6.304;2023-06-24T14:04:24;28.70;79.60
16412;DHT22;8315;52.104;6.304;2023-06-24T14:06:50;28.40;80.40
16412;DHT22;8315;52.104;6.304;2023-06-24T14:09:18;28.50;80.70
16412;DHT22;8315;52.104;6.304;2023-06-24T14:11:45;28.50;80.00
16412;DHT22;8315;52.104;6.304;2023-06-24T14:14:12;28.60;80.30
16412;DHT22;8315;52.104;6.304;2023-06-24T14:16:40;28.70;79.50
16412;DHT22;8315;52.104;6.304;2023-06-24T14:19:07;28.80;81.70
16412;DHT22;8315;52.104;6.304;2023-06-24T14:21:34;29.20;79.20
16412;DHT22;8315;52.104;6.304;2023-06-24T14:24:01;29.20;78.90
16412;DHT22;8315;52.104;6.304;2023-06-24T14:26:28;29.00;76.90
16412;DHT22;8315;52.104;6.304;2023-06-24T14:28:55;29.00;79.30
16412;DHT22;8315;52.104;6.304;2023-06-24T14:31:22;29.20;79.20
16412;DHT22;8315;52.104;6.304;2023-06-24T14:33:50;29.20;77.20
16412;DHT22;8315;52.104;6.304;2023-06-24T14:36:16;29.10;76.90
16412;DHT22;8315;52.104;6.304;2023-06-24T14:38:43;28.80;77.40
16412;DHT22;8315;52.104;6.304;2023-06-24T14:41:10;28.70;79.50
16412;DHT22;8315;52.104;6.304;2023-06-24T14:43:37;28.80;78.90
16412;DHT22;8315;52.104;6.304;2023-06-24T14:46:04;28.90;79.30
16412;DHT22;8315;52.104;6.304;2023-06-24T14:48:30;29.00;80.80
16412;DHT22;8315;52.104;6.304;2023-06-24T14:50:59;28.80;76.70
16412;DHT22;8315;52.104;6.304;2023-06-24T14:53:25;29.00;77.00
16412;DHT22;8315;52.104;6.304;2023-06-24T14:55:52;29.40;78.00
16412;DHT22;8315;52.104;6.304;2023-06-24T14:58:19;29.10;79.00
16412;DHT22;8315;52.104;6.304;2023-06-24T15:00:46;28.80;77.80
16412;DHT22;8315;52.104;6.304;2023-06-24T15:03:12;28.80;78.60
16412;DHT22;8315;52.104;6.304;2023-06-24T15:05:39;28.90;78.70
16412;DHT22;8315;52.104;6.304;2023-06-24T15:08:07;29.10;79.30
16412;DHT22;8315;52.104;6.304;2023-06-24T15:10:34;28.80;77.40
16412;DHT22;8315;52.104;6.304;2023-06-24T15:13:01;29.10;77.60
16412;DHT22;8315;52.104;6.304;2023-06-24T15:15:27;29.30;78.90
16412;DHT22;8315;52.104;6.304;2023-06-24T15:17:54;29.40;78.10
16412;DHT22;8315;52.104;6.304;2023-06-24T15:20:21;29.40;78.80
16412;DHT22;8315;52.104;6.304;2023-06-24T15:22:48;29.50;78.50
16412;DHT22;8315;52.104;6.304;2023-06-24T15:25:16;29.50;77.30
16412;DHT22;8315;52.104;6.304;2023-06-24T15:27:43;29.30;77.30
16412;DHT22;8315;52.104;6.304;2023-06-24T15:30:10;29.50;79.10
16412;DHT22;8315;52.104;6.304;2023-06-24T15:32:37;29.80;78.20
16412;DHT22;8315;52.104;6.304;2023-06-24T15:35:04;29.80;79.30
16412;DHT22;8315;52.104;6.304;2023-06-24T15:37:31;29.80;78.20
16412;DHT22;8315;52.104;6.304;2023-06-24T15:39:58;29.80;76.90
16412;DHT22;8315;52.104;6.304;2023-06-24T15:42:26;30.60;75.30
16412;DHT22;8315;52.104;6.304;2023-06-24T15:44:52;31.00;75.90
16412;DHT22;8315;52.104;6.304;2023-06-24T15:47:19;31.20;74.30
16412;DHT22;8315;52.104;6.304;2023-06-24T15:49:46;31.40;73.00